sensor_id;sensor_type;location;lat;lon;timestamp;temperature;humidity
85176;SHT31;75548;42.444;27.488;2024-03-02T00:00:50;9.29;91.55
85176;SHT31;75548;42.444;27.488;2024-03-02T00:04:15;9.27;91.60
85176;SHT31;75548;42.444;27.488;2024-03-02T00:07:43;9.30;91.58
85176;SHT31;75548;42.444;27.488;2024-03-02T00:11:05;9.22;91.64
85176;SHT31;75548;42.444;27.488;2024-03-02T00:14:31;9.10;92.02
85176;SHT31;75548;42.444;27.488;2024-03-02T00:17:56;9.09;92.04
85176;SHT31;75548;42.444;27.488;2024-03-02T00:21:24;9.09;92.25
85176;SHT31;75548;42.444;27.488;2024-03-02T00:24:53;9.06;92.60
85176;SHT31;75548;42.444;27.488;2024-03-02T00:28:22;9.09;92.50
85176;SHT31;75548;42.444;27.488;2024-03-02T00:31:46;9.20;92.45
85176;SHT31;75548;42.444;27.488;2024-03-02T00:35:12;9.22;92.16
85176;SHT31;75548;42.444;27.488;2024-03-02T00:38:55;9.27;92.23
85176;SHT31;75548;42.444;27.488;2024-03-02T00:42:05;9.33;92.24
85176;SHT31;75548;42.444;27.488;2024-03-02T00:45:31;9.29;92.34
85176;SHT31;75548;42.444;27.488;2024-03-02T00:48:57;9.27;92.27
85176;SHT31;75548;42.444;27.488;2024-03-02T00:52:22;9.22;92.49
85176;SHT31;75548;42.444;27.488;2024-03-02T00:55:47;9.22;92.41
85176;SHT31;75548;42.444;27.488;2024-03-02T00:59:12;9.19;92.66
85176;SHT31;75548;42.444;27.488;2024-03-02T01:02:38;9.15;92.74
85176;SHT31;75548;42.444;27.488;2024-03-02T01:06:03;9.20;92.81
85176;SHT31;75548;42.444;27.488;2024-03-02T01:09:29;9.24;92.71
85176;SHT31;75548;42.444;27.488;2024-03-02T01:12:54;9.23;92.49
85176;SHT31;75548;42.444;27.488;2024-03-02T01:16:19;9.27;92.70
85176;SHT31;75548;42.444;27.488;2024-03-02T01:19:45;9.19;92.93
85176;SHT31;75548;42.444;27.488;2024-03-02T01:23:10;9.15;92.83
85176;SHT31;75548;42.444;27.488;2024-03-02T01:26:36;9.22;92.81
85176;SHT31;75548;42.444;27.488;2024-03-02T01:30:01;9.20;92.63
85176;SHT31;75548;42.444;27.488;2024-03-02T01:33:26;9.19;92.70
85176;SHT31;75548;42.444;27.488;2024-03-02T01:36:52;9.15;92.83
85176;SHT31;75548;42.444;27.488;2024-03-02T01:40:17;9.19;92.72
85176;SHT31;75548;42.444;27.488;2024-03-02T01:43:42;9.18;92.86
85176;SHT31;75548;42.444;27.488;2024-03-02T01:47:08;9.12;92.99
85176;SHT31;75548;42.444;27.488;2024-03-02T01:50:33;9.13;93.13
85176;SHT31;75548;42.444;27.488;2024-03-02T01:53:59;9.09;93.18
85176;SHT31;75548;42.444;27.488;2024-03-02T01:57:24;9.15;92.97
85176;SHT31;75548;42.444;27.488;2024-03-02T02:00:49;9.19;92.27
85176;SHT31;75548;42.444;27.488;2024-03-02T02:04:15;9.23;92.21
85176;SHT31;75548;42.444;27.488;2024-03-02T02:07:43;9.18;92.37
85176;SHT31;75548;42.444;27.488;2024-03-02T02:11:08;9.24;92.14
85176;SHT31;75548;42.444;27.488;2024-03-02T02:14:34;9.12;92.62
85176;SHT31;75548;42.444;27.488;2024-03-02T02:17:59;9.08;93.06
85176;SHT31;75548;42.444;27.488;2024-03-02T02:21:25;9.05;93.03
85176;SHT31;75548;42.444;27.488;2024-03-02T02:24:50;9.09;92.85
85176;SHT31;75548;42.444;27.488;2024-03-02T02:28:16;9.19;92.61
85176;SHT31;75548;42.444;27.488;2024-03-02T02:31:41;9.22;92.22
85176;SHT31;75548;42.444;27.488;2024-03-02T02:35:06;9.23;91.88
85176;SHT31;75548;42.444;27.488;2024-03-02T02:38:32;9.29;91.22
85176;SHT31;75548;42.444;27.488;2024-03-02T02:41:57;9.31;90.69
85176;SHT31;75548;42.444;27.488;2024-03-02T02:45:23;9.30;90.62
85176;SHT31;75548;42.444;27.488;2024-03-02T02:48:28;9.33;90.53
85176;SHT31;75548;42.444;27.488;2024-03-02T02:50:54;9.30;90.75
85176;SHT31;75548;42.444;27.488;2024-03-02T02:53:19;9.33;90.54
85176;SHT31;75548;42.444;27.488;2024-03-02T02:56:05;9.34;90.55
85176;SHT31;75548;42.444;27.488;2024-03-02T02:59:30;9.36;90.56
85176;SHT31;75548;42.444;27.488;2024-03-02T03:02:56;9.31;90.14
85176;SHT31;75548;42.444;27.488;2024-03-02T03:06:21;9.30;90.35
85176;SHT31;75548;42.444;27.488;2024-03-02T03:09:46;9.29;90.42
85176;SHT31;75548;42.444;27.488;2024-03-02T03:13:12;9.23;90.41
85176;SHT31;75548;42.444;27.488;2024-03-02T03:16:37;9.27;90.59
85176;SHT31;75548;42.444;27.488;2024-03-02T03:20:03;9.29;90.69
85176;SHT31;75548;42.444;27.488;2024-03-02T03:23:28;9.31;90.66
85176;SHT31;75548;42.444;27.488;2024-03-02T03:26:53;9.26;91.09
85176;SHT31;75548;42.444;27.488;2024-03-02T03:30:19;9.24;91.31
85176;SHT31;75548;42.444;27.488;2024-03-02T03:33:44;9.20;90.96
85176;SHT31;75548;42.444;27.488;2024-03-02T03:37:10;9.16;91.13
85176;SHT31;75548;42.444;27.488;2024-03-02T03:40:38;9.13;91.41
85176;SHT31;75548;42.444;27.488;2024-03-02T03:44:03;9.06;91.77
85176;SHT31;75548;42.444;27.488;2024-03-02T03:47:28;9.06;91.43
85176;SHT31;75548;42.444;27.488;2024-03-02T03:50:54;9.10;91.57
85176;SHT31;75548;42.444;27.488;2024-03-02T03:54:19;9.09;91.36
85176;SHT31;75548;42.444;27.488;2024-03-02T03:57:45;9.12;90.51
85176;SHT31;75548;42.444;27.488;2024-03-02T04:01:10;9.16;90.33
85176;SHT31;75548;42.444;27.488;2024-03-02T04:04:35;9.09;90.50
85176;SHT31;75548;42.444;27.488;2024-03-02T04:08:01;9.08;90.77
85176;SHT31;75548;42.444;27.488;2024-03-02T04:11:26;9.09;90.58
85176;SHT31;75548;42.444;27.488;2024-03-02T04:14:52;9.10;90.95
85176;SHT31;75548;42.444;27.488;2024-03-02T04:18:17;9.09;90.98
85176;SHT31;75548;42.444;27.488;2024-03-02T04:21:42;9.06;91.23
85176;SHT31;75548;42.444;27.488;2024-03-02T04:25:08;9.09;91.08
85176;SHT31;75548;42.444;27.488;2024-03-02T04:28:33;9.13;91.03
85176;SHT31;75548;42.444;27.488;2024-03-02T04:31:59;8.98;91.56
85176;SHT31;75548;42.444;27.488;2024-03-02T04:35:24;9.09;91.61
85176;SHT31;75548;42.444;27.488;2024-03-02T04:38:49;9.08;91.67
85176;SHT31;75548;42.444;27.488;2024-03-02T04:42:15;9.08;91.75
85176;SHT31;75548;42.444;27.488;2024-03-02T04:45:40;9.10;91.79
85176;SHT31;75548;42.444;27.488;2024-03-02T04:49:06;9.10;92.14
85176;SHT31;75548;42.444;27.488;2024-03-02T04:52:31;9.12;92.10
85176;SHT31;75548;42.444;27.488;2024-03-02T04:55:56;9.09;92.34
85176;SHT31;75548;42.444;27.488;2024-03-02T04:59:08;9.05;92.64
85176;SHT31;75548;42.444;27.488;2024-03-02T05:02:33;9.08;92.63
85176;SHT31;75548;42.444;27.488;2024-03-02T05:05:59;9.09;92.17
85176;SHT31;75548;42.444;27.488;2024-03-02T05:09:24;9.10;92.08
85176;SHT31;75548;42.444;27.488;2024-03-02T05:12:49;9.06;92.18
85176;SHT31;75548;42.444;27.488;2024-03-02T05:16:15;9.06;92.16
85176;SHT31;75548;42.444;27.488;2024-03-02T05:19:40;9.12;92.12
85176;SHT31;75548;42.444;27.488;2024-03-02T05:23:06;9.09;92.01
85176;SHT31;75548;42.444;27.488;2024-03-02T05:26:31;9.08;92.09
85176;SHT31;75548;42.444;27.488;2024-03-02T05:29:56;9.22;91.51
85176;SHT31;75548;42.444;27.488;2024-03-02T05:33:22;9.22;91.18
85176;SHT31;75548;42.444;27.488;2024-03-02T05:36:47;9.27;90.76
85176;SHT31;75548;42.444;27.488;2024-03-02T05:40:13;9.24;90.42
85176;SHT31;75548;42.444;27.488;2024-03-02T05:43:38;9.24;90.49
85176;SHT31;75548;42.444;27.488;2024-03-02T05:47:03;9.37;90.38
85176;SHT31;75548;42.444;27.488;2024-03-02T05:50:29;9.30;90.61
85176;SHT31;75548;42.444;27.488;2024-03-02T05:53:54;9.31;90.57
85176;SHT31;75548;42.444;27.488;2024-03-02T05:57:20;9.30;90.57
85176;SHT31;75548;42.444;27.488;2024-03-02T06:00:57;9.29;90.36
85176;SHT31;75548;42.444;27.488;2024-03-02T06:04:26;9.34;90.33
85176;SHT31;75548;42.444;27.488;2024-03-02T06:07:51;9.33;90.66
85176;SHT31;75548;42.444;27.488;2024-03-02T06:11:17;9.41;90.01
85176;SHT31;75548;42.444;27.488;2024-03-02T06:14:42;9.51;89.77
85176;SHT31;75548;42.444;27.488;2024-03-02T06:18:07;9.46;89.94
85176;SHT31;75548;42.444;27.488;2024-03-02T06:21:32;9.51;90.04
85176;SHT31;75548;42.444;27.488;2024-03-02T06:24:58;9.51;90.04
85176;SHT31;75548;42.444;27.488;2024-03-02T06:28:23;9.52;90.02
85176;SHT31;75548;42.444;27.488;2024-03-02T06:31:49;9.47;89.93
85176;SHT31;75548;42.444;27.488;2024-03-02T06:35:14;9.58;89.56
85176;SHT31;75548;42.444;27.488;2024-03-02T06:38:40;9.61;89.59
85176;SHT31;75548;42.444;27.488;2024-03-02T06:42:05;9.54;89.14
85176;SHT31;75548;42.444;27.488;2024-03-02T06:45:30;9.58;89.36
85176;SHT31;75548;42.444;27.488;2024-03-02T06:48:56;9.67;88.98
85176;SHT31;75548;42.444;27.488;2024-03-02T06:52:21;9.58;89.22
85176;SHT31;75548;42.444;27.488;2024-03-02T06:55:07;9.65;89.02
85176;SHT31;75548;42.444;27.488;2024-03-02T06:57:53;9.87;88.41
85176;SHT31;75548;42.444;27.488;2024-03-02T07:01:18;9.95;87.83
85176;SHT31;75548;42.444;27.488;2024-03-02T07:04:44;9.89;87.97
85176;SHT31;75548;42.444;27.488;2024-03-02T07:08:09;10.13;86.81
85176;SHT31;75548;42.444;27.488;2024-03-02T07:11:34;10.13;87.11
85176;SHT31;75548;42.444;27.488;2024-03-02T07:15:00;10.18;86.93
85176;SHT31;75548;42.444;27.488;2024-03-02T07:18:24;10.12;87.28
85176;SHT31;75548;42.444;27.488;2024-03-02T07:21:50;10.08;86.60
85176;SHT31;75548;42.444;27.488;2024-03-02T07:25:15;10.08;86.37
85176;SHT31;75548;42.444;27.488;2024-03-02T07:28:41;10.05;86.64
85176;SHT31;75548;42.444;27.488;2024-03-02T07:32:08;9.99;87.00
85176;SHT31;75548;42.444;27.488;2024-03-02T07:35:31;9.91;87.49
85176;SHT31;75548;42.444;27.488;2024-03-02T07:38:56;9.98;87.55
85176;SHT31;75548;42.444;27.488;2024-03-02T07:42:22;10.09;87.50
85176;SHT31;75548;42.444;27.488;2024-03-02T07:45:48;9.92;88.11
85176;SHT31;75548;42.444;27.488;2024-03-02T07:49:13;10.01;88.10
85176;SHT31;75548;42.444;27.488;2024-03-02T07:52:18;9.92;88.52
85176;SHT31;75548;42.444;27.488;2024-03-02T07:55:44;9.89;89.17
85176;SHT31;75548;42.444;27.488;2024-03-02T07:59:09;9.87;89.21
85176;SHT31;75548;42.444;27.488;2024-03-02T08:02:34;9.91;88.23
85176;SHT31;75548;42.444;27.488;2024-03-02T08:06:00;9.99;87.97
85176;SHT31;75548;42.444;27.488;2024-03-02T08:09:25;9.97;88.18
85176;SHT31;75548;42.444;27.488;2024-03-02T08:12:51;10.01;88.06
85176;SHT31;75548;42.444;27.488;2024-03-02T08:16:16;10.02;88.35
85176;SHT31;75548;42.444;27.488;2024-03-02T08:19:42;9.95;88.86
85176;SHT31;75548;42.444;27.488;2024-03-02T08:23:07;9.98;88.54
85176;SHT31;75548;42.444;27.488;2024-03-02T08:26:32;9.98;88.67
85176;SHT31;75548;42.444;27.488;2024-03-02T08:29:57;10.03;88.31
85176;SHT31;75548;42.444;27.488;2024-03-02T08:33:23;10.03;88.35
85176;SHT31;75548;42.444;27.488;2024-03-02T08:36:48;10.05;88.32
85176;SHT31;75548;42.444;27.488;2024-03-02T08:40:14;10.18;87.99
85176;SHT31;75548;42.444;27.488;2024-03-02T08:43:40;10.13;88.05
85176;SHT31;75548;42.444;27.488;2024-03-02T08:47:04;10.12;88.05
85176;SHT31;75548;42.444;27.488;2024-03-02T08:50:30;10.12;87.88
85176;SHT31;75548;42.444;27.488;2024-03-02T08:53:56;10.08;88.37
85176;SHT31;75548;42.444;27.488;2024-03-02T08:57:21;9.99;88.18
85176;SHT31;75548;42.444;27.488;2024-03-02T09:00:46;10.23;87.78
85176;SHT31;75548;42.444;27.488;2024-03-02T09:04:12;10.19;87.53
85176;SHT31;75548;42.444;27.488;2024-03-02T09:07:37;10.29;87.60
85176;SHT31;75548;42.444;27.488;2024-03-02T09:11:03;10.22;87.69
85176;SHT31;75548;42.444;27.488;2024-03-02T09:14:28;10.28;87.28
85176;SHT31;75548;42.444;27.488;2024-03-02T09:17:53;10.20;87.59
85176;SHT31;75548;42.444;27.488;2024-03-02T09:21:19;10.22;87.50
85176;SHT31;75548;42.444;27.488;2024-03-02T09:24:44;10.33;87.23
85176;SHT31;75548;42.444;27.488;2024-03-02T09:28:10;10.63;86.32
85176;SHT31;75548;42.444;27.488;2024-03-02T09:31:39;10.46;87.00
85176;SHT31;75548;42.444;27.488;2024-03-02T09:35:00;10.33;87.42
85176;SHT31;75548;42.444;27.488;2024-03-02T09:38:26;10.45;87.04
85176;SHT31;75548;42.444;27.488;2024-03-02T09:41:51;10.29;87.52
85176;SHT31;75548;42.444;27.488;2024-03-02T09:45:16;10.39;87.35
85176;SHT31;75548;42.444;27.488;2024-03-02T09:48:43;10.42;87.52
85176;SHT31;75548;42.444;27.488;2024-03-02T09:52:07;10.63;86.35
85176;SHT31;75548;42.444;27.488;2024-03-02T09:55:33;10.67;85.81
85176;SHT31;75548;42.444;27.488;2024-03-02T09:58:59;10.70;85.49
85176;SHT31;75548;42.444;27.488;2024-03-02T10:02:23;10.81;85.46
85176;SHT31;75548;42.444;27.488;2024-03-02T10:05:49;10.88;85.29
85176;SHT31;75548;42.444;27.488;2024-03-02T10:09:21;10.80;85.11
85176;SHT31;75548;42.444;27.488;2024-03-02T10:12:40;10.88;85.49
85176;SHT31;75548;42.444;27.488;2024-03-02T10:16:23;10.84;85.28
85176;SHT31;75548;42.444;27.488;2024-03-02T10:19:36;10.93;84.98
85176;SHT31;75548;42.444;27.488;2024-03-02T10:23:14;10.85;84.95
85176;SHT31;75548;42.444;27.488;2024-03-02T10:26:39;10.91;84.89
85176;SHT31;75548;42.444;27.488;2024-03-02T10:30:07;10.76;84.70
85176;SHT31;75548;42.444;27.488;2024-03-02T10:33:32;10.91;83.98
85176;SHT31;75548;42.444;27.488;2024-03-02T10:36:58;10.98;83.82
85176;SHT31;75548;42.444;27.488;2024-03-02T10:40:26;11.14;82.78
85176;SHT31;75548;42.444;27.488;2024-03-02T10:43:54;11.11;82.41
85176;SHT31;75548;42.444;27.488;2024-03-02T10:47:00;11.04;82.48
85176;SHT31;75548;42.444;27.488;2024-03-02T10:49:46;11.14;82.27
85176;SHT31;75548;42.444;27.488;2024-03-02T10:52:52;10.98;82.68
85176;SHT31;75548;42.444;27.488;2024-03-02T10:55:37;11.11;82.68
85176;SHT31;75548;42.444;27.488;2024-03-02T10:59:03;11.35;81.77
85176;SHT31;75548;42.444;27.488;2024-03-02T11:02:28;11.10;82.19
85176;SHT31;75548;42.444;27.488;2024-03-02T11:05:33;11.31;81.30
85176;SHT31;75548;42.444;27.488;2024-03-02T11:08:58;11.35;80.86
85176;SHT31;75548;42.444;27.488;2024-03-02T11:12:29;11.38;80.32
85176;SHT31;75548;42.444;27.488;2024-03-02T11:15:55;11.47;79.66
85176;SHT31;75548;42.444;27.488;2024-03-02T11:19:20;11.40;79.33
85176;SHT31;75548;42.444;27.488;2024-03-02T11:22:45;11.39;79.16
85176;SHT31;75548;42.444;27.488;2024-03-02T11:26:20;11.58;78.44
85176;SHT31;75548;42.444;27.488;2024-03-02T11:32:49;11.67;77.92
85176;SHT31;75548;42.444;27.488;2024-03-02T11:36:14;11.59;79.06
85176;SHT31;75548;42.444;27.488;2024-03-02T11:39:39;11.63;79.65
85176;SHT31;75548;42.444;27.488;2024-03-02T11:43:04;11.65;79.27
85176;SHT31;75548;42.444;27.488;2024-03-02T11:46:30;11.84;77.86
85176;SHT31;75548;42.444;27.488;2024-03-02T11:49:58;11.77;77.19
85176;SHT31;75548;42.444;27.488;2024-03-02T11:53:24;11.86;76.59
85176;SHT31;75548;42.444;27.488;2024-03-02T11:56:49;11.73;77.25
85176;SHT31;75548;42.444;27.488;2024-03-02T12:00:17;11.40;78.69
85176;SHT31;75548;42.444;27.488;2024-03-02T12:03:43;11.53;78.69
85176;SHT31;75548;42.444;27.488;2024-03-02T12:07:08;11.36;79.35
85176;SHT31;75548;42.444;27.488;2024-03-02T12:10:34;11.18;80.94
85176;SHT31;75548;42.444;27.488;2024-03-02T12:13:59;11.39;79.76
85176;SHT31;75548;42.444;27.488;2024-03-02T12:17:24;11.45;79.53
85176;SHT31;75548;42.444;27.488;2024-03-02T12:20:50;11.42;79.23
85176;SHT31;75548;42.444;27.488;2024-03-02T12:24:15;11.36;79.44
85176;SHT31;75548;42.444;27.488;2024-03-02T12:27:40;11.31;79.75
85176;SHT31;75548;42.444;27.488;2024-03-02T12:31:06;11.24;80.60
85176;SHT31;75548;42.444;27.488;2024-03-02T12:34:31;11.19;79.88
85176;SHT31;75548;42.444;27.488;2024-03-02T12:37:57;11.28;80.02
85176;SHT31;75548;42.444;27.488;2024-03-02T12:41:22;11.15;79.01
85176;SHT31;75548;42.444;27.488;2024-03-02T12:44:47;11.19;79.22
85176;SHT31;75548;42.444;27.488;2024-03-02T12:48:13;11.22;78.69
85176;SHT31;75548;42.444;27.488;2024-03-02T12:51:38;11.21;77.93
85176;SHT31;75548;42.444;27.488;2024-03-02T12:55:04;11.36;77.84
85176;SHT31;75548;42.444;27.488;2024-03-02T12:58:29;11.38;78.44
85176;SHT31;75548;42.444;27.488;2024-03-02T13:01:55;11.16;79.69
85176;SHT31;75548;42.444;27.488;2024-03-02T13:05:20;11.31;78.91
85176;SHT31;75548;42.444;27.488;2024-03-02T13:08:45;11.12;79.80
85176;SHT31;75548;42.444;27.488;2024-03-02T13:12:11;11.18;79.40
85176;SHT31;75548;42.444;27.488;2024-03-02T13:15:36;11.14;79.35
85176;SHT31;75548;42.444;27.488;2024-03-02T13:19:01;11.21;79.32
85176;SHT31;75548;42.444;27.488;2024-03-02T13:22:27;11.25;79.39
85176;SHT31;75548;42.444;27.488;2024-03-02T13:25:55;11.18;79.51
85176;SHT31;75548;42.444;27.488;2024-03-02T13:29:18;11.11;79.69
85176;SHT31;75548;42.444;27.488;2024-03-02T13:32:43;11.10;80.15
85176;SHT31;75548;42.444;27.488;2024-03-02T13:36:11;11.25;80.24
85176;SHT31;75548;42.444;27.488;2024-03-02T13:39:36;10.91;81.58
85176;SHT31;75548;42.444;27.488;2024-03-02T13:43:02;10.94;81.74
85176;SHT31;75548;42.444;27.488;2024-03-02T13:46:27;10.70;83.50
85176;SHT31;75548;42.444;27.488;2024-03-02T13:49:53;10.57;84.47
85176;SHT31;75548;42.444;27.488;2024-03-02T13:53:18;10.57;84.55
85176;SHT31;75548;42.444;27.488;2024-03-02T13:56:44;10.52;84.49
85176;SHT31;75548;42.444;27.488;2024-03-02T14:00:09;10.59;84.56
85176;SHT31;75548;42.444;27.488;2024-03-02T14:03:34;10.61;84.23
85176;SHT31;75548;42.444;27.488;2024-03-02T14:07:00;10.60;84.04
85176;SHT31;75548;42.444;27.488;2024-03-02T14:10:25;10.53;84.40
85176;SHT31;75548;42.444;27.488;2024-03-02T14:13:51;10.57;83.57
85176;SHT31;75548;42.444;27.488;2024-03-02T14:17:16;10.61;83.34
85176;SHT31;75548;42.444;27.488;2024-03-02T14:20:42;10.61;83.45
85176;SHT31;75548;42.444;27.488;2024-03-02T14:24:07;10.61;83.40
85176;SHT31;75548;42.444;27.488;2024-03-02T14:27:32;10.55;83.91
85176;SHT31;75548;42.444;27.488;2024-03-02T14:30:58;10.52;83.93
85176;SHT31;75548;42.444;27.488;2024-03-02T14:34:23;10.46;83.84
85176;SHT31;75548;42.444;27.488;2024-03-02T14:37:48;10.47;84.18
85176;SHT31;75548;42.444;27.488;2024-03-02T14:41:14;10.49;84.47
85176;SHT31;75548;42.444;27.488;2024-03-02T14:44:39;10.45;84.64
85176;SHT31;75548;42.444;27.488;2024-03-02T14:48:05;10.49;83.61
85176;SHT31;75548;42.444;27.488;2024-03-02T14:51:30;10.43;84.34
85176;SHT31;75548;42.444;27.488;2024-03-02T14:54:56;10.39;84.28
85176;SHT31;75548;42.444;27.488;2024-03-02T14:58:21;10.26;84.76
85176;SHT31;75548;42.444;27.488;2024-03-02T15:01:46;10.22;84.97
85176;SHT31;75548;42.444;27.488;2024-03-02T15:05:12;10.22;85.32
85176;SHT31;75548;42.444;27.488;2024-03-02T15:08:37;10.16;86.01
85176;SHT31;75548;42.444;27.488;2024-03-02T15:12:03;10.08;86.45
85176;SHT31;75548;42.444;27.488;2024-03-02T15:15:28;10.02;86.63
85176;SHT31;75548;42.444;27.488;2024-03-02T15:18:53;9.92;87.33
85176;SHT31;75548;42.444;27.488;2024-03-02T15:22:19;9.89;87.53
85176;SHT31;75548;42.444;27.488;2024-03-02T15:25:44;9.81;88.08
85176;SHT31;75548;42.444;27.488;2024-03-02T15:29:10;9.81;88.11
85176;SHT31;75548;42.444;27.488;2024-03-02T15:32:35;9.73;88.37
85176;SHT31;75548;42.444;27.488;2024-03-02T15:36:00;9.71;88.31
85176;SHT31;75548;42.444;27.488;2024-03-02T15:39:26;9.57;88.92
85176;SHT31;75548;42.444;27.488;2024-03-02T15:42:54;9.54;89.16
85176;SHT31;75548;42.444;27.488;2024-03-02T15:46:20;9.48;89.46
85176;SHT31;75548;42.444;27.488;2024-03-02T15:49:45;9.44;89.78
85176;SHT31;75548;42.444;27.488;2024-03-02T15:53:10;9.30;90.30
85176;SHT31;75548;42.444;27.488;2024-03-02T15:56:36;9.31;90.35
85176;SHT31;75548;42.444;27.488;2024-03-02T16:00:01;9.22;90.86
85176;SHT31;75548;42.444;27.488;2024-03-02T16:03:27;9.22;91.23
85176;SHT31;75548;42.444;27.488;2024-03-02T16:06:52;9.22;91.13
85176;SHT31;75548;42.444;27.488;2024-03-02T16:10:18;9.13;91.31
85176;SHT31;75548;42.444;27.488;2024-03-02T16:13:43;9.12;91.68
85176;SHT31;75548;42.444;27.488;2024-03-02T16:17:08;9.10;91.89
85176;SHT31;75548;42.444;27.488;2024-03-02T16:20:34;9.16;91.72
85176;SHT31;75548;42.444;27.488;2024-03-02T16:23:59;9.19;91.79
85176;SHT31;75548;42.444;27.488;2024-03-02T16:27:25;9.24;91.61
85176;SHT31;75548;42.444;27.488;2024-03-02T16:30:50;9.15;92.17
85176;SHT31;75548;42.444;27.488;2024-03-02T16:34:15;9.22;92.11
85176;SHT31;75548;42.444;27.488;2024-03-02T16:37:41;9.19;92.08
85176;SHT31;75548;42.444;27.488;2024-03-02T16:41:06;9.15;92.65
85176;SHT31;75548;42.444;27.488;2024-03-02T16:44:32;9.15;92.59
85176;SHT31;75548;42.444;27.488;2024-03-02T16:47:57;9.19;92.48
85176;SHT31;75548;42.444;27.488;2024-03-02T16:51:23;9.18;92.43
85176;SHT31;75548;42.444;27.488;2024-03-02T16:54:48;9.19;92.66
85176;SHT31;75548;42.444;27.488;2024-03-02T16:58:13;9.16;92.57
85176;SHT31;75548;42.444;27.488;2024-03-02T17:01:39;9.18;92.53
85176;SHT31;75548;42.444;27.488;2024-03-02T17:05:04;9.22;92.45
85176;SHT31;75548;42.444;27.488;2024-03-02T17:08:30;9.18;92.62
85176;SHT31;75548;42.444;27.488;2024-03-02T17:11:55;9.22;92.51
85176;SHT31;75548;42.444;27.488;2024-03-02T17:15:20;9.16;92.68
85176;SHT31;75548;42.444;27.488;2024-03-02T17:18:46;9.19;92.65
85176;SHT31;75548;42.444;27.488;2024-03-02T17:22:11;9.16;92.55
85176;SHT31;75548;42.444;27.488;2024-03-02T17:25:36;9.13;92.72
85176;SHT31;75548;42.444;27.488;2024-03-02T17:29:02;9.16;92.68
85176;SHT31;75548;42.444;27.488;2024-03-02T17:32:27;9.15;92.80
85176;SHT31;75548;42.444;27.488;2024-03-02T17:35:53;9.15;92.73
85176;SHT31;75548;42.444;27.488;2024-03-02T17:39:18;9.12;92.70
85176;SHT31;75548;42.444;27.488;2024-03-02T17:42:44;9.09;92.86
85176;SHT31;75548;42.444;27.488;2024-03-02T17:46:09;9.06;92.93
85176;SHT31;75548;42.444;27.488;2024-03-02T17:49:34;9.05;92.97
85176;SHT31;75548;42.444;27.488;2024-03-02T17:53:00;9.02;93.13
85176;SHT31;75548;42.444;27.488;2024-03-02T17:56:25;9.01;93.06
85176;SHT31;75548;42.444;27.488;2024-03-02T17:59:51;8.98;93.13
85176;SHT31;75548;42.444;27.488;2024-03-02T18:03:16;8.96;93.33
85176;SHT31;75548;42.444;27.488;2024-03-02T18:06:42;8.95;93.39
85176;SHT31;75548;42.444;27.488;2024-03-02T18:10:07;8.93;93.32
85176;SHT31;75548;42.444;27.488;2024-03-02T18:13:36;8.92;93.13
85176;SHT31;75548;42.444;27.488;2024-03-02T18:17:01;8.98;93.07
85176;SHT31;75548;42.444;27.488;2024-03-02T18:20:26;9.01;93.19
85176;SHT31;75548;42.444;27.488;2024-03-02T18:23:52;8.93;93.32
85176;SHT31;75548;42.444;27.488;2024-03-02T18:27:17;8.98;92.91
85176;SHT31;75548;42.444;27.488;2024-03-02T18:30:43;8.91;93.16
85176;SHT31;75548;42.444;27.488;2024-03-02T18:34:08;8.92;92.96
85176;SHT31;75548;42.444;27.488;2024-03-02T18:37:34;8.91;93.01
85176;SHT31;75548;42.444;27.488;2024-03-02T18:40:59;8.89;92.87
85176;SHT31;75548;42.444;27.488;2024-03-02T18:44:24;8.88;92.77
85176;SHT31;75548;42.444;27.488;2024-03-02T18:47:50;8.95;92.51
85176;SHT31;75548;42.444;27.488;2024-03-02T18:51:15;8.95;92.74
85176;SHT31;75548;42.444;27.488;2024-03-02T18:54:41;8.88;92.89
85176;SHT31;75548;42.444;27.488;2024-03-02T18:58:06;8.95;92.69
85176;SHT31;75548;42.444;27.488;2024-03-02T19:01:31;8.88;92.87
85176;SHT31;75548;42.444;27.488;2024-03-02T19:04:57;8.96;92.67
85176;SHT31;75548;42.444;27.488;2024-03-02T19:08:22;8.95;92.72
85176;SHT31;75548;42.444;27.488;2024-03-02T19:11:48;8.91;92.94
85176;SHT31;75548;42.444;27.488;2024-03-02T19:15:13;8.83;93.32
85176;SHT31;75548;42.444;27.488;2024-03-02T19:18:39;8.81;93.01
85176;SHT31;75548;42.444;27.488;2024-03-02T19:22:04;8.71;92.97
85176;SHT31;75548;42.444;27.488;2024-03-02T19:25:29;8.82;92.40
85176;SHT31;75548;42.444;27.488;2024-03-02T19:28:55;8.92;91.86
85176;SHT31;75548;42.444;27.488;2024-03-02T19:32:20;8.76;91.31
85176;SHT31;75548;42.444;27.488;2024-03-02T19:35:46;8.79;90.91
85176;SHT31;75548;42.444;27.488;2024-03-02T19:39:11;8.79;90.90
85176;SHT31;75548;42.444;27.488;2024-03-02T19:42:36;8.81;90.22
85176;SHT31;75548;42.444;27.488;2024-03-02T19:46:02;8.86;89.93
85176;SHT31;75548;42.444;27.488;2024-03-02T19:49:27;8.85;89.64
85176;SHT31;75548;42.444;27.488;2024-03-02T19:52:53;8.76;89.87
85176;SHT31;75548;42.444;27.488;2024-03-02T19:56:18;8.95;89.25
85176;SHT31;75548;42.444;27.488;2024-03-02T19:59:43;8.85;89.69
85176;SHT31;75548;42.444;27.488;2024-03-02T20:03:09;8.81;88.97
85176;SHT31;75548;42.444;27.488;2024-03-02T20:06:34;8.75;88.98
85176;SHT31;75548;42.444;27.488;2024-03-02T20:09:59;8.74;88.99
85176;SHT31;75548;42.444;27.488;2024-03-02T20:13:25;8.76;88.86
85176;SHT31;75548;42.444;27.488;2024-03-02T20:16:50;8.78;89.07
85176;SHT31;75548;42.444;27.488;2024-03-02T20:20:16;9.03;88.80
85176;SHT31;75548;42.444;27.488;2024-03-02T20:23:41;8.98;88.90
85176;SHT31;75548;42.444;27.488;2024-03-02T20:27:06;8.98;88.92
85176;SHT31;75548;42.444;27.488;2024-03-02T20:30:32;9.03;88.88
85176;SHT31;75548;42.444;27.488;2024-03-02T20:33:57;8.95;89.13
85176;SHT31;75548;42.444;27.488;2024-03-02T20:37:23;8.91;89.67
85176;SHT31;75548;42.444;27.488;2024-03-02T20:40:48;8.93;89.78
85176;SHT31;75548;42.444;27.488;2024-03-02T20:44:14;8.91;89.83
85176;SHT31;75548;42.444;27.488;2024-03-02T20:47:39;9.16;88.74
85176;SHT31;75548;42.444;27.488;2024-03-02T20:51:05;9.15;88.45
85176;SHT31;75548;42.444;27.488;2024-03-02T20:54:30;9.01;89.07
85176;SHT31;75548;42.444;27.488;2024-03-02T20:57:55;8.96;89.23
85176;SHT31;75548;42.444;27.488;2024-03-02T21:01:20;8.88;89.51
85176;SHT31;75548;42.444;27.488;2024-03-02T21:04:46;8.76;89.40
85176;SHT31;75548;42.444;27.488;2024-03-02T21:08:11;8.58;89.73
85176;SHT31;75548;42.444;27.488;2024-03-02T21:11:37;8.53;90.02
85176;SHT31;75548;42.444;27.488;2024-03-02T21:15:02;8.48;89.59
85176;SHT31;75548;42.444;27.488;2024-03-02T21:18:28;8.43;89.42
85176;SHT31;75548;42.444;27.488;2024-03-02T21:21:53;8.38;88.62
85176;SHT31;75548;42.444;27.488;2024-03-02T21:25:18;8.47;88.37